createdAt,value
2022-08-24T00:01:15.972Z,18.00
2022-08-24T00:04:01.875Z,18.00
2022-08-24T00:07:23.717Z,18.00
2022-08-24T00:10:13.625Z,18.10
2022-08-24T00:12:59.790Z,18.20
2022-08-24T00:15:46.521Z,18.20
2022-08-24T00:18:33.255Z,18.20
2022-08-24T00:21:19.431Z,18.30
2022-08-24T00:24:06.328Z,18.30
2022-08-24T00:26:52.646Z,18.30
2022-08-24T00:29:39.035Z,18.30
2022-08-24T00:32:25.073Z,18.40
2022-08-24T00:35:12.086Z,18.40
2022-08-24T00:37:57.926Z,18.40
2022-08-24T00:40:47.669Z,18.40
2022-08-24T00:43:34.249Z,18.40
2022-08-24T00:46:55.165Z,18.40
2022-08-24T00:49:51.183Z,18.40
2022-08-24T00:52:41.860Z,18.50
2022-08-24T00:55:50.857Z,18.50
2022-08-24T00:58:46.530Z,18.50
2022-08-24T01:01:39.739Z,18.50
2022-08-24T01:04:31.372Z,18.50
2022-08-24T01:07:23.986Z,18.60
2022-08-24T01:10:15.000Z,18.60
2022-08-24T01:13:05.911Z,18.60
2022-08-24T01:15:55.294Z,18.60
2022-08-24T01:18:50.681Z,18.60
2022-08-24T01:21:45.174Z,18.50
2022-08-24T01:24:31.113Z,18.50
2022-08-24T01:27:17.592Z,18.50
2022-08-24T01:30:10.875Z,18.40
2022-08-24T01:33:00.548Z,18.50
2022-08-24T01:35:46.672Z,18.40
2022-08-24T01:38:34.035Z,18.40
2022-08-24T01:41:20.004Z,18.40
2022-08-24T01:44:06.086Z,18.40
2022-08-24T01:46:54.719Z,18.50
2022-08-24T01:49:46.364Z,18.50
2022-08-24T01:53:01.468Z,18.50
2022-08-24T01:55:41.932Z,18.50
2022-08-24T01:58:27.719Z,18.50
2022-08-24T02:01:17.666Z,18.50
2022-08-24T02:04:06.559Z,18.50
2022-08-24T02:06:55.518Z,18.50
2022-08-24T02:09:41.743Z,18.40
2022-08-24T02:12:28.710Z,18.40
2022-08-24T02:15:14.891Z,18.40
2022-08-24T02:18:01.086Z,18.50
2022-08-24T02:20:47.510Z,18.50
2022-08-24T02:23:33.874Z,18.40
2022-08-24T02:26:19.867Z,18.50
2022-08-24T02:29:05.837Z,18.50
2022-08-24T02:31:51.843Z,18.50
2022-08-24T02:34:38.079Z,18.50
2022-08-24T02:37:25.204Z,18.50
2022-08-24T02:40:13.297Z,18.50
2022-08-24T02:42:59.392Z,18.50
2022-08-24T02:45:50.271Z,18.60
2022-08-24T02:48:37.811Z,18.60
2022-08-24T02:51:29.169Z,18.60
2022-08-24T02:54:18.439Z,18.70
2022-08-24T02:57:06.225Z,18.70
2022-08-24T02:59:52.209Z,18.80
2022-08-24T03:02:39.234Z,18.80
2022-08-24T03:05:26.058Z,18.90
2022-08-24T03:08:12.636Z,18.90
2022-08-24T03:11:00.311Z,18.90
2022-08-24T03:13:46.355Z,18.90
2022-08-24T03:16:32.427Z,18.90
2022-08-24T03:19:19.458Z,18.90
2022-08-24T03:22:05.469Z,18.80
2022-08-24T03:24:51.294Z,18.80
2022-08-24T03:27:37.191Z,18.80
2022-08-24T03:30:24.083Z,18.80
2022-08-24T03:33:12.065Z,18.90
2022-08-24T03:35:58.365Z,18.90
2022-08-24T03:38:45.461Z,18.90
2022-08-24T03:41:31.920Z,18.90
2022-08-24T03:44:23.383Z,19.00
2022-08-24T03:47:10.691Z,19.00
2022-08-24T03:49:57.562Z,19.10
2022-08-24T03:52:43.464Z,19.10
2022-08-24T03:55:29.367Z,19.20
2022-08-24T03:58:15.798Z,19.30
2022-08-24T04:01:03.175Z,19.30
2022-08-24T04:03:50.318Z,19.20
2022-08-24T04:06:36.633Z,19.30
2022-08-24T04:09:22.223Z,19.30
2022-08-24T04:12:08.343Z,19.30
2022-08-24T04:14:57.403Z,19.30
2022-08-24T04:17:45.109Z,19.30
2022-08-24T04:20:31.956Z,19.30
2022-08-24T04:23:19.041Z,19.40
2022-08-24T04:26:05.169Z,19.40
2022-08-24T04:28:52.364Z,19.40
2022-08-24T04:31:40.267Z,19.50
2022-08-24T04:34:26.319Z,19.60
2022-08-24T04:37:12.715Z,19.60
2022-08-24T04:39:58.375Z,19.70
2022-08-24T04:42:52.699Z,19.80
2022-08-24T04:45:40.955Z,19.90
2022-08-24T04:48:27.513Z,19.90
2022-08-24T04:51:18.016Z,20.00
2022-08-24T04:54:05.434Z,20.00
2022-08-24T04:56:51.351Z,20.10
2022-08-24T04:59:38.128Z,20.10
2022-08-24T05:05:46.081Z,20.10
2022-08-24T05:08:32.795Z,20.20
2022-08-24T05:14:36.709Z,20.50
2022-08-24T05:17:23.793Z,20.50
2022-08-24T05:20:41.405Z,20.50
2022-08-24T05:23:27.703Z,20.60
2022-08-24T05:26:20.550Z,20.60
2022-08-24T05:29:06.983Z,20.60
2022-08-24T05:32:02.214Z,20.70
2022-08-24T05:34:49.615Z,21.00
2022-08-24T05:37:38.730Z,21.00
2022-08-24T05:40:33.582Z,20.90
2022-08-24T05:43:52.598Z,20.70
2022-08-24T05:46:39.018Z,20.70
2022-08-24T05:49:25.841Z,20.80
2022-08-24T05:52:12.637Z,20.90
2022-08-24T05:55:00.023Z,21.60
2022-08-24T06:00:51.980Z,23.70
2022-08-24T06:03:42.307Z,24.70
2022-08-24T06:06:57.358Z,24.60
2022-08-24T06:12:54.711Z,23.20
2022-08-24T06:15:42.748Z,22.70
2022-08-24T06:18:30.773Z,22.50
2022-08-24T06:21:19.831Z,22.30
2022-08-24T06:24:08.059Z,22.10
2022-08-24T06:27:13.121Z,22.30
2022-08-24T09:23:57.140Z,31.60
2022-08-24T15:49:57.988Z,23.80
2022-08-24T15:52:49.816Z,23.70
2022-08-24T15:55:44.767Z,23.50
2022-08-24T15:58:34.889Z,23.20
2022-08-24T16:01:46.816Z,23.10
2022-08-24T16:04:47.997Z,23.30
2022-08-24T16:07:55.050Z,23.40
2022-08-24T16:10:53.812Z,23.40
2022-08-24T16:13:42.881Z,23.30
2022-08-24T16:16:43.018Z,23.20
2022-08-24T16:19:34.852Z,23.10
2022-08-24T16:22:30.125Z,23.30
2022-08-24T16:25:23.641Z,23.50
2022-08-24T16:28:21.787Z,23.70
2022-08-24T16:31:08.261Z,23.80
2022-08-24T16:34:29.476Z,23.70
2022-08-24T16:37:16.599Z,23.50
2022-08-24T16:40:02.495Z,23.50
2022-08-24T16:42:48.562Z,23.40
2022-08-24T16:45:36.181Z,23.20
2022-08-24T16:48:21.984Z,22.90
2022-08-24T16:51:07.875Z,22.50
2022-08-24T16:53:53.951Z,22.20
2022-08-24T16:56:39.854Z,22.10
2022-08-24T16:59:32.666Z,22.00
2022-08-24T17:02:20.261Z,21.90
2022-08-24T17:05:06.747Z,21.90
2022-08-24T17:07:52.723Z,22.00
2022-08-24T17:10:38.562Z,21.90
2022-08-24T17:13:49.310Z,21.80
2022-08-24T17:16:30.731Z,21.60
2022-08-24T17:19:20.680Z,21.60
2022-08-24T17:41:46.149Z,21.20
2022-08-24T17:44:33.581Z,21.10
2022-08-24T17:47:19.815Z,21.00
2022-08-24T17:50:10.205Z,21.00
2022-08-24T17:52:59.068Z,20.80
2022-08-24T17:55:47.534Z,20.80
2022-08-24T17:58:53.803Z,20.60
2022-08-24T18:01:56.092Z,20.60
2022-08-24T18:04:44.172Z,20.50
2022-08-24T18:17:22.588Z,20.30
2022-08-24T20:15:01.939Z,18.90
2022-08-24T20:27:32.357Z,19.00
2022-08-24T20:33:59.245Z,19.10
2022-08-24T21:13:29.944Z,19.00
2022-08-24T21:19:26.076Z,19.00
2022-08-24T23:33:57.640Z,19.30
